Latest Weather Observations for Walgett

IDN60801

Issued at 9:34 am EDT Saturday 20 December 2014 (issued every 30 minutes, with the page automatically refreshed every 10 minutes)

About weather observations | Map of weather stations | Latest weather observations for NSW | Other Formats
Station Details ID: 052088 Name: WALGETT AIRPORT AWS Lat: -30.04 Lon: 148.12 Height: 133.0 m
Data from the previous 72 hours. | See also: Recent months at Walgett
Date/Time
EDT
Temp
°C
App
Temp
°C
Dew
Point
Rel
Hum
%
Delta-T
°C
Wind Press
QNH
hPa
Press
MSL
hPa
Rain
since 9 am
mm
Dir
 
Spd
km/h
Gust
km/h
Spd
kts
Gust
kts
20/09:30am 25.2 22.9 7.3 32 9.5 E 9 17 5 9 1015.8 1015.1 0.0
20/09:00am 23.7 21.4 7.3 35 8.6 E 9 15 5 8 1015.7 1015.0 -
20/08:30am 22.4 19.4 6.2 35 8.3 ESE 11 15 6 8 1015.6 1014.9 -
20/08:00am 20.7 17.0 4.3 34 8.0 SE 13 20 7 11 1015.4 1014.7 -
20/07:30am 19.2 14.3 -0.2 27 8.5 SSE 15 17 8 9 1014.9 1014.2 -
20/07:00am 16.7 12.4 -1.9 28 7.7 S 11 15 6 8 1014.6 1013.9 -
20/06:30am 13.3 8.3 -4.3 29 6.7 S 13 15 7 8 1014.4 1013.7 -
20/05:30am 14.0 9.8 -4.2 28 7.0 S 9 13 5 7 1013.9 1013.2 -
20/05:00am 13.7 9.0 -4.9 27 7.0 S 11 15 6 8 1013.7 1013.0 -
20/04:30am 14.3 9.3 -4.4 27 7.2 S 13 13 7 7 1013.5 1012.8 -
20/04:00am 15.0 9.6 -4.3 26 7.5 SSW 15 15 8 8 1013.3 1012.6 -
20/03:30am 15.4 10.4 -4.0 26 7.6 SSW 13 13 7 7 1013.4 1012.7 -
20/03:00am 15.4 10.8 -4.5 25 7.7 SSW 11 13 6 7 1013.6 1012.9 0.0
20/02:30am 15.7 10.3 -4.2 25 7.8 S 15 17 8 9 1013.7 1013.0 -
20/02:00am 16.0 11.7 -4.5 24 8.0 S 9 11 5 6 1013.8 1013.1 -
20/01:30am 16.6 11.5 -5.2 22 8.4 SSE 13 15 7 8 1014.0 1013.3 -
20/01:00am 17.7 13.1 -4.3 22 8.8 SSE 11 13 6 7 1014.1 1013.4 -
20/12:30am 18.2 14.0 -3.8 22 8.9 SSE 9 11 5 6 1014.2 1013.5 -
20/12:00am 18.0 13.0 -4.6 21 9.0 SSE 13 15 7 8 1014.3 1013.6 -
 
Date/Time
EDT
Temp
°C
App
Temp
°C
Dew
Point
Rel
Hum
%
Delta-T
°C
Wind Press
QNH
hPa
Press
MSL
hPa
Rain
since 9 am
mm
Dir
 
Spd
km/h
Gust
km/h
Spd
kts
Gust
kts
19/11:30pm 19.8 14.9 -3.8 20 9.7 SSE 13 15 7 8 1014.3 1013.6 -
19/11:00pm 20.6 15.7 -3.8 19 10.1 SSE 13 17 7 9 1014.3 1013.6 -
19/10:30pm 21.8 16.1 -3.5 18 10.7 SSE 17 19 9 10 1014.0 1013.3 -
19/10:00pm 22.0 17.1 -3.4 18 10.7 SSE 13 15 7 8 1013.5 1012.8 -
19/09:30pm 23.2 18.3 -3.2 17 11.3 SSE 13 15 7 8 1013.2 1012.5 -
19/09:00pm 24.0 19.1 -3.3 16 11.8 SSE 13 15 7 8 1013.0 1012.3 0.0
19/08:30pm 26.7 21.6 -2.1 15 13.0 SSE 15 19 8 10 1012.7 1012.0 -
19/08:00pm 29.0 23.0 -1.2 14 14.1 S 20 24 11 13 1012.3 1011.5 -
19/07:30pm 30.5 24.6 -1.0 13 14.9 S 20 28 11 15 1011.9 1011.1 -
19/07:00pm 31.3 25.1 -0.4 13 15.3 SSW 22 33 12 18 1011.7 1010.9 -
19/06:30pm 31.8 25.6 0.0 13 15.5 SSW 22 33 12 18 1011.4 1010.6 -
19/06:00pm 31.7 24.4 -0.1 13 15.4 SSW 28 39 15 21 1011.2 1010.4 -
19/05:30pm 32.3 25.1 0.4 13 15.7 SW 28 37 15 20 1011.1 1010.3 -
19/05:00pm 32.0 24.9 1.2 14 15.3 SW 28 37 15 20 1011.2 1010.4 -
19/04:30pm 32.3 24.8 1.4 14 15.4 SW 30 43 16 23 1011.3 1010.5 -
19/04:00pm 32.3 24.7 0.4 13 15.7 WSW 30 43 16 23 1011.5 1010.7 -
19/03:30pm 32.8 26.4 0.8 13 15.9 SW 24 35 13 19 1011.7 1010.9 -
19/03:00pm 32.9 26.3 1.9 14 15.7 WSW 26 39 14 21 1012.1 1011.3 -
19/02:30pm 32.9 26.1 2.9 15 15.4 SW 28 41 15 22 1012.3 1011.5 -
19/02:00pm 32.0 25.4 2.1 15 15.1 WSW 26 44 14 24 1012.8 1012.1 -
19/01:30pm 32.2 26.4 2.3 15 15.2 SSW 22 43 12 23 1013.1 1012.4 0.0
19/01:00pm 32.4 25.9 2.5 15 15.2 SW 26 39 14 21 1013.3 1012.6 0.0
19/12:30pm 31.1 25.5 3.2 17 14.3 SSW 22 39 12 21 1013.5 1012.8 0.0
19/12:00pm 30.8 25.6 3.8 18 13.9 SSW 20 30 11 16 1013.6 1012.9 0.0
19/11:30am 29.4 23.0 3.4 19 13.2 SSW 26 37 14 20 1013.7 1013.0 0.0
19/11:00am 29.4 23.4 3.4 19 13.2 SSW 24 33 13 18 1013.7 1013.0 0.0
19/10:30am 29.4 22.8 4.1 20 13.0 S 28 35 15 19 1013.7 1013.0 0.0
19/10:00am 27.5 20.6 2.6 20 12.3 S 28 39 15 21 1013.7 1013.0 0.0
19/09:30am 27.2 20.0 3.0 21 12.0 S 30 37 16 20 1013.6 1012.9 0.0
19/09:00am 26.5 18.9 3.7 23 11.4 S 33 41 18 22 1013.6 1012.9 0.0
19/08:30am 25.1 18.2 2.5 23 11.0 S 28 35 15 19 1013.3 1012.6 0.0
19/08:00am 23.4 17.8 1.1 23 10.4 SSW 20 32 11 17 1013.0 1012.3 0.0
19/07:30am 21.2 16.7 -0.1 24 9.5 SW 13 15 7 8 1012.8 1012.1 0.0
19/07:00am 18.3 14.6 2.2 34 7.4 W 11 13 6 7 1012.3 1011.5 0.0
19/06:30am 15.2 12.4 3.0 44 5.5 WNW 7 9 4 5 1012.0 1011.2 0.0
19/06:00am 14.8 12.1 2.7 44 5.4 NW 6 9 3 5 1011.7 1010.9 0.0
19/05:30am 13.9 11.0 1.2 42 5.5 NNW 6 7 3 4 1011.6 1010.8 0.0
19/05:00am 15.6 12.7 2.7 42 5.8 NNW 7 9 4 5 1011.3 1010.5 0.0
19/04:30am 16.7 13.7 2.0 37 6.6 W 7 9 4 5 1011.0 1010.2 0.0
19/04:00am 17.6 14.1 1.2 33 7.3 WSW 9 11 5 6 1010.8 1010.0 0.0
19/03:30am 19.0 14.8 1.5 31 8.0 NW 13 15 7 8 1010.2 1009.4 0.0
19/03:00am 20.5 16.3 1.4 28 8.8 NW 13 19 7 10 1010.0 1009.2 0.0
19/02:30am 21.2 16.8 0.4 25 9.4 NNW 13 17 7 9 1009.9 1009.1 0.0
19/02:00am 21.2 16.7 -0.1 24 9.6 NNW 13 17 7 9 1010.0 1009.2 0.0
19/01:30am 21.6 17.6 0.2 24 9.7 NNW 11 13 6 7 1010.1 1009.3 0.0
19/01:00am 22.1 17.3 0.0 23 10.0 N 15 17 8 9 1010.4 1009.6 0.0
19/12:30am 21.9 17.4 -0.1 23 9.9 N 13 15 7 8 1010.6 1009.8 0.0
19/12:00am 22.6 18.2 0.4 23 10.2 N 13 17 7 9 1010.7 1009.9 0.0
 
Date/Time
EDT
Temp
°C
App
Temp
°C
Dew
Point
Rel
Hum
%
Delta-T
°C
Wind Press
QNH
hPa
Press
MSL
hPa
Rain
since 9 am
mm
Dir
 
Spd
km/h
Gust
km/h
Spd
kts
Gust
kts
18/11:30pm 21.8 17.6 1.5 26 9.4 N 13 15 7 8 1010.8 1010.0 0.0
18/11:00pm 19.2 15.6 0.3 28 8.4 N 9 13 5 7 1010.8 1010.0 0.0
18/10:30pm 20.4 16.8 0.8 27 8.9 N 9 13 5 7 1010.8 1010.0 0.0
18/10:00pm 21.0 17.0 0.2 25 9.4 NNE 11 13 6 7 1010.6 1009.8 0.0
18/09:30pm 22.9 19.9 1.8 25 9.9 NNE 7 9 4 5 1010.4 1009.6 0.0
18/09:00pm 23.6 20.5 0.0 21 10.8 NE 6 7 3 4 1010.4 1009.6 0.0
18/08:30pm 25.0 22.9 -0.9 18 11.8 CALM 0 0 0 0 1009.9 1009.1 0.0
18/08:00pm 26.7 24.5 -1.2 16 12.8 CALM 0 0 0 0 1009.3 1008.6 0.0
18/07:30pm 28.0 24.7 -1.0 15 13.5 SW 6 7 3 4 1008.9 1008.2 0.0
18/07:00pm 28.8 23.8 -1.3 14 14.0 SW 15 19 8 10 1008.4 1007.7 0.0
18/06:30pm 29.3 23.4 -1.9 13 14.4 SSW 19 24 10 13 1008.0 1007.3 0.0
18/06:00pm 29.9 24.1 -1.5 13 14.7 SSW 19 24 10 13 1007.6 1006.9 0.0
18/05:30pm 30.5 24.6 -2.1 12 15.2 SW 19 24 10 13 1007.7 1007.0 0.0
18/05:00pm 30.4 24.9 -2.2 12 15.2 SW 17 24 9 13 1007.8 1007.1 0.0
18/04:30pm 30.7 25.6 -1.9 12 15.2 WSW 15 20 8 11 1008.4 1007.7 0.0
18/04:00pm 30.9 24.3 -3.0 11 15.6 WSW 22 30 12 16 1009.1 1008.4 0.0
18/03:30pm 31.1 24.6 -2.8 11 15.6 SW 22 30 12 16 1009.1 1008.4 0.0
18/03:00pm 31.2 25.2 -1.5 12 15.5 SW 20 33 11 18 1009.5 1008.7 0.0
18/02:30pm 31.2 24.6 -0.5 13 15.2 WSW 24 35 13 19 1009.6 1008.8 0.0
18/02:00pm 31.7 25.4 -1.2 12 15.7 SW 22 30 12 16 1009.5 1008.7 0.0
18/01:30pm 32.7 25.7 -0.4 12 16.1 SW 26 37 14 20 1008.6 1007.9 0.0
18/01:00pm 32.3 24.5 -0.7 12 15.9 SW 30 44 16 24 1008.3 1007.6 0.0
18/12:30pm 32.2 25.6 2.3 15 15.2 SW 26 35 14 19 1008.3 1007.6 0.0
18/12:11pm 31.9 25.2 3.8 17 14.6 SW 28 39 15 21 1008.2 1007.5 0.0
18/12:00pm 32.1 26.4 3.1 16 14.9 SW 22 33 12 18 1008.2 1007.5 0.0
18/11:56am 31.9 26.2 3.0 16 14.8 SW 22 33 12 18 1008.2 1007.5 0.0
18/11:46am 31.7 26.0 2.8 16 14.7 SW 22 32 12 17 1008.2 1007.5 0.0
18/11:30am 32.1 26.2 4.0 17 14.6 SW 24 35 13 19 1008.0 1007.3 0.0
18/11:28am 32.2 26.3 4.1 17 14.7 SW 24 35 13 19 1007.9 1007.2 0.0
18/11:00am 32.2 26.9 3.2 16 15.0 SW 20 28 11 15 1007.2 1006.5 0.0
18/10:30am 32.1 26.8 3.1 16 14.9 SW 20 28 11 15 1006.8 1006.1 0.0
18/10:00am 31.6 28.7 4.4 18 14.3 W 9 15 5 8 1006.9 1006.2 0.0
18/09:30am 29.7 27.3 5.1 21 12.9 WSW 7 11 4 6 1006.7 1006.0 0.0
18/09:00am 28.8 25.1 4.3 21 12.6 WSW 13 19 7 10 1006.8 1006.1 0.0
18/08:30am 27.5 25.1 5.1 24 11.6 WNW 7 9 4 5 1005.9 1005.2 0.0
18/08:00am 26.4 23.7 7.4 30 10.2 W 11 13 6 7 1005.6 1004.8 0.0
18/07:30am 26.0 25.1 11.4 40 8.3 N 7 9 4 5 1005.5 1004.7 0.0
18/07:00am 25.3 24.0 11.1 41 8.1 NNW 9 11 5 6 1005.1 1004.3 0.0
18/06:30am 23.8 22.0 9.4 40 7.9 NW 9 11 5 6 1005.3 1004.5 0.0
18/06:00am 22.8 20.4 7.0 36 8.2 NNW 9 11 5 6 1005.1 1004.3 0.0
18/05:30am 23.1 21.2 6.8 35 8.4 WNW 6 7 3 4 1004.5 1003.7 0.0
18/05:00am 23.3 21.2 6.6 34 8.7 NW 7 9 4 5 1004.3 1003.5 0.0
18/04:30am 22.3 21.1 4.8 32 8.7 CALM 0 0 0 0 1004.1 1003.3 0.0
18/04:00am 21.8 19.1 2.5 28 9.2 E 6 13 3 7 1003.9 1003.1 0.0
18/03:30am 23.8 21.7 5.7 31 9.2 NW 6 7 3 4 1004.0 1003.2 0.0
18/03:00am 23.8 22.7 5.2 30 9.4 CALM 0 6 0 3 1004.1 1003.3 0.0
18/02:30am 24.4 22.0 5.2 29 9.7 WNW 7 7 4 4 1004.1 1003.3 0.0
18/02:00am 24.5 23.1 3.8 26 10.3 CALM 0 0 0 0 1004.4 1003.6 0.0
18/01:30am 26.5 24.2 4.9 25 11.0 ENE 6 7 3 4 1004.7 1003.9 0.0
18/01:00am 27.9 25.2 5.5 24 11.7 ESE 9 13 5 7 1004.8 1004.0 0.0
18/12:30am 27.8 24.9 4.8 23 11.8 ESE 9 11 5 6 1004.6 1003.8 0.0
18/12:00am 27.2 24.4 3.0 21 12.1 SE 7 9 4 5 1005.0 1004.2 0.0
 
Date/Time
EDT
Temp
°C
App
Temp
°C
Dew
Point
Rel
Hum
%
Delta-T
°C
Wind Press
QNH
hPa
Press
MSL
hPa
Rain
since 9 am
mm
Dir
 
Spd
km/h
Gust
km/h
Spd
kts
Gust
kts
17/11:30pm 29.4 26.0 4.1 20 13.0 ESE 11 15 6 8 1005.0 1004.2 0.0
17/11:00pm 28.9 25.1 3.7 20 12.9 SSE 13 17 7 9 1004.9 1004.1 0.0
17/10:30pm 30.1 26.2 3.2 18 13.7 SSE 13 19 7 10 1004.7 1003.9 0.0
17/10:00pm 30.5 26.2 3.5 18 13.9 SSE 15 17 8 9 1004.6 1003.8 0.0
17/09:30pm 32.3 27.8 4.2 17 14.7 SSE 17 20 9 11 1004.3 1003.5 0.0
17/09:00pm 33.8 29.7 6.2 18 15.1 SW 17 22 9 12 1004.6 1003.8 0.0
17/08:30pm 34.0 31.4 7.9 20 14.6 NNW 11 19 6 10 1004.3 1003.5 0.0
17/08:28pm 34.0 31.2 8.6 21 14.4 NNW 13 19 7 10 1004.2 1003.4 0.0
17/08:11pm 34.4 30.9 8.9 21 14.5 NNW 17 22 9 12 1004.1 1003.3 0.0
17/08:00pm 34.6 30.2 9.1 21 14.6 NNW 22 35 12 19 1004.0 1003.2 0.0
17/07:34pm 34.6 28.5 9.8 22 14.3 NW 32 50 17 27 1003.7 1002.9 0.0
17/07:30pm 34.6 28.5 9.8 22 14.3 NNW 32 50 17 27 1003.6 1002.8 0.0
17/07:03pm 34.2 26.1 10.1 23 14.0 NNW 43 61 23 33 1002.9 1002.1 0.0
17/07:00pm 34.1 26.7 10.0 23 14.0 NW 39 61 21 33 1003.0 1002.2 0.0
17/06:56pm 34.4 28.1 8.9 21 14.5 WNW 32 61 17 33 1002.9 1002.1 0.0
17/06:53pm 36.5 31.4 7.5 17 16.3 W 24 59 13 32 1003.1 1002.3 0.0
17/06:30pm 39.5 34.5 4.8 12 19.0 WSW 20 32 11 17 1001.4 1000.7 0.0
17/06:00pm 40.3 35.7 5.4 12 19.5 WSW 19 33 10 18 1001.0 1000.3 0.0
17/05:30pm 39.9 35.0 5.1 12 19.2 WSW 20 32 11 17 1001.0 1000.3 0.0
17/05:00pm 39.1 34.1 4.5 12 18.9 W 20 35 11 19 1001.4 1000.7 0.0
17/04:30pm 39.0 32.4 4.4 12 18.8 WSW 28 43 15 23 1001.8 1001.0 0.0
17/04:00pm 40.2 35.4 5.4 12 19.4 W 20 32 11 17 1002.2 1001.4 0.0
17/03:30pm 40.0 34.6 6.4 13 18.9 WSW 24 39 13 21 1002.7 1001.9 0.0
17/03:00pm 40.4 35.1 6.7 13 19.2 WNW 24 39 13 21 1003.0 1002.2 0.0
17/02:30pm 39.3 35.4 6.9 14 18.3 W 17 30 9 16 1003.4 1002.6 0.0
17/02:00pm 38.7 35.0 6.4 14 18.1 WNW 15 24 8 13 1003.9 1003.1 0.0
17/01:30pm 37.4 34.5 6.4 15 17.3 SW 11 20 6 11 1004.5 1003.7 0.0
17/01:00pm 35.9 32.7 7.0 17 16.2 WSW 13 19 7 10 1005.0 1004.2 0.0
17/12:30pm 35.2 31.7 7.3 18 15.6 SW 15 26 8 14 1005.3 1004.5 0.0
17/12:00pm 34.7 32.1 7.7 19 15.2 S 11 19 6 10 1005.5 1004.7 0.0
17/11:30am 33.0 30.0 7.8 21 14.0 SSW 13 20 7 11 1005.8 1005.1 0.0
17/11:00am 33.3 30.5 8.7 22 13.9 S 13 24 7 13 1005.8 1005.1 0.0
17/10:30am 31.7 27.5 7.4 22 13.4 S 19 30 10 16 1005.7 1004.9 0.0
17/10:00am 30.7 26.6 7.8 24 12.6 SSE 19 24 10 13 1005.9 1005.2 0.0

Other Formats:

Comma delimited format used in spreadsheet applications
http://www.bom.gov.au/fwo/IDN60801/IDN60801.95715.axf

JavaScript Object Notation format (JSON) in row-major order
http://www.bom.gov.au/fwo/IDN60801/IDN60801.95715.json